Time;durP1;ratioP1;P1;durP2;ratioP2;P2;SDS_P1;SDS_P2;PMS_P1;PMS_P2;Temp;Humidity;BMP_temperature;BMP_pressure;BME280_temperature;BME280_humidity;BME280_pressure;Samples;Min_cycle;Max_cycle;Signal;HPM_P1;HPM_P2
2024/01/23 00:01:35;;;;;;;37.72;11.80;;;;;;;-4.10;81.67;95735.59;5053830;28;21380;-74
2024/01/23 00:04:01;;;;;;;21.25;10.98;;;;;;;-4.02;82.44;95731.94;5056116;28;20204;-73
2024/01/23 00:06:27;;;;;;;17.95;11.00;;;;;;;-4.07;80.70;95742.31;5052497;28;20637;-71
2024/01/23 00:08:55;;;;;;;24.30;11.50;;;;;;;-4.49;81.05;95752.41;5056190;28;20234;-72
2024/01/23 00:11:22;;;;;;;30.10;12.18;;;;;;;-4.78;83.71;95750.19;5051671;28;20261;-72
2024/01/23 00:13:49;;;;;;;21.45;9.27;;;;;;;-4.93;83.74;95752.25;5049071;28;20207;-72
2024/01/23 00:16:16;;;;;;;16.30;9.13;;;;;;;-5.23;85.38;95752.66;5042331;28;20298;-73
2024/01/23 00:18:44;;;;;;;12.95;7.90;;;;;;;-5.19;86.62;95743.28;5045783;28;20199;-72
2024/01/23 00:21:11;;;;;;;16.85;10.50;;;;;;;-5.20;86.14;95748.78;5044746;28;20196;-72
2024/01/23 00:23:38;;;;;;;20.10;10.45;;;;;;;-5.06;85.40;95745.94;5047802;28;20578;-73
2024/01/23 00:26:05;;;;;;;13.32;7.85;;;;;;;-4.92;85.90;95735.38;5046769;28;20227;-73
2024/01/23 00:28:31;;;;;;;17.02;7.45;;;;;;;-5.20;85.50;95738.22;5045788;28;20199;-74
2024/01/23 00:30:58;;;;;;;24.17;13.32;;;;;;;-5.62;86.13;95734.09;5045072;28;20575;-73
2024/01/23 00:33:27;;;;;;;21.45;8.90;;;;;;;-5.47;86.98;95732.91;5049893;28;20767;-72
2024/01/23 00:35:55;;;;;;;23.15;7.75;;;;;;;-5.17;85.45;95722.78;5045885;28;20207;-72
2024/01/23 00:38:22;;;;;;;14.43;9.23;;;;;;;-5.05;84.46;95721.16;5048276;28;20203;-71
2024/01/23 00:40:49;;;;;;;25.45;10.82;;;;;;;-5.06;83.08;95714.22;5043989;28;20207;-72
2024/01/23 00:43:19;;;;;;;25.13;11.23;;;;;;;-5.13;84.68;95713.44;5050147;28;20282;-72
2024/01/23 00:45:48;;;;;;;18.30;8.23;;;;;;;-5.39;85.86;95708.16;5046333;28;20238;-73
2024/01/23 00:48:15;;;;;;;23.88;11.65;;;;;;;-5.34;87.22;95716.28;5044198;28;20293;-70
2024/01/23 00:50:42;;;;;;;34.40;12.55;;;;;;;-5.40;86.02;95717.06;5047325;28;20227;-71
2024/01/23 00:53:10;;;;;;;29.73;10.48;;;;;;;-5.61;84.86;95718.06;5050025;28;20207;-73
2024/01/23 00:55:37;;;;;;;24.95;8.90;;;;;;;-6.10;85.40;95715.72;5051969;28;20257;-70
2024/01/23 00:58:04;;;;;;;33.50;9.65;;;;;;;-6.33;86.10;95715.22;5049158;28;20578;-72
2024/01/23 01:00:31;;;;;;;28.23;9.20;;;;;;;-6.20;87.16;95704.75;5050929;28;20279;-74
2024/01/23 01:02:58;;;;;;;14.73;7.82;;;;;;;-6.20;87.24;95702.09;5049065;28;20577;-75
2024/01/23 01:05:25;;;;;;;28.98;8.77;;;;;;;-5.68;85.78;95697.94;5049106;28;20231;-73
2024/01/23 01:07:52;;;;;;;17.02;8.02;;;;;;;-5.43;84.47;95691.88;5050492;28;20261;-74
2024/01/23 01:10:22;;;;;;;20.75;8.75;;;;;;;-5.45;83.27;95695.75;5051445;28;20230;-72
2024/01/23 01:12:49;;;;;;;26.08;10.93;;;;;;;-5.73;85.09;95695.91;5051989;28;20211;-73
2024/01/23 01:15:16;;;;;;;18.52;12.40;;;;;;;-5.59;86.28;95697.56;5048052;28;20287;-75
2024/01/23 01:17:43;;;;;;;19.92;9.82;;;;;;;-5.34;85.17;95689.88;5047091;28;20672;-75
2024/01/23 01:20:10;;;;;;;20.90;8.63;;;;;;;-5.05;83.55;95684.16;5048824;28;20204;-73
2024/01/23 01:22:37;;;;;;;13.77;5.60;;;;;;;-5.14;83.05;95680.13;5047662;28;20560;-76
2024/01/23 01:25:04;;;;;;;14.35;6.68;;;;;;;-5.33;83.17;95680.94;5050178;28;20208;-73
2024/01/23 01:27:32;;;;;;;23.35;8.82;;;;;;;-5.45;83.65;95671.97;5050758;28;20212;-73
2024/01/23 01:29:59;;;;;;;21.40;8.98;;;;;;;-5.67;84.65;95678.47;5050453;28;20238;-75
2024/01/23 01:32:26;;;;;;;13.18;6.30;;;;;;;-5.98;86.62;95677.22;5048338;28;20213;-73
2024/01/23 01:34:53;;;;;;;18.55;7.43;;;;;;;-6.19;85.81;95672.09;5050351;28;20199;-73
2024/01/23 01:37:20;;;;;;;13.82;6.22;;;;;;;-6.49;86.58;95669.75;5051020;28;20214;-73
2024/01/23 01:39:47;;;;;;;22.33;8.07;;;;;;;-6.54;86.74;95669.50;5050749;28;20203;-74
2024/01/23 01:42:14;;;;;;;18.48;9.10;;;;;;;-6.71;87.10;95665.59;5049925;28;20203;-71
2024/01/23 01:44:42;;;;;;;21.45;7.50;;;;;;;-6.68;86.91;95665.19;5050278;28;20212;-72
2024/01/23 01:47:10;;;;;;;28.50;6.43;;;;;;;-6.59;87.69;95663.22;5043843;28;20677;-73
2024/01/23 01:49:37;;;;;;;33.85;11.38;;;;;;;-6.31;87.13;95660.50;5050098;28;20211;-74
2024/01/23 01:52:05;;;;;;;22.98;9.40;;;;;;;-6.21;86.72;95660.94;5050704;28;20598;-74
2024/01/23 01:54:32;;;;;;;25.50;7.63;;;;;;;-6.22;86.56;95659.31;5051552;28;20587;-74
2024/01/23 01:57:00;;;;;;;10.65;6.05;;;;;;;-6.12;87.46;95659.72;5046061;28;20207;-71
2024/01/23 01:59:27;;;;;;;23.55;6.88;;;;;;;-5.86;86.68;95654.47;5050542;28;20261;-73
2024/01/23 02:01:56;;;;;;;14.40;8.75;;;;;;;-5.87;84.59;95658.13;5050662;28;20195;-73
2024/01/23 02:04:23;;;;;;;19.73;8.68;;;;;;;-5.99;85.13;95651.03;5046820;28;20212;-74
2024/01/23 02:06:50;;;;;;;12.32;8.88;;;;;;;-5.93;86.07;95648.44;5047989;28;20672;-73
2024/01/23 02:09:17;;;;;;;17.23;4.80;;;;;;;-5.66;84.73;95651.88;5049033;28;20342;-73
2024/01/23 02:11:56;;;;;;;12.88;6.55;;;;;;;-5.47;82.46;95642.38;5050620;28;20561;-74
2024/01/23 02:14:23;;;;;;;18.13;6.97;;;;;;;-5.84;82.33;95647.19;5044934;28;20298;-75
2024/01/23 02:16:50;;;;;;;22.48;9.40;;;;;;;-5.73;81.41;95637.84;5049517;28;20200;-73
2024/01/23 02:19:18;;;;;;;16.33;6.93;;;;;;;-6.06;82.64;95642.31;5050005;28;20204;-73
2024/01/23 02:21:45;;;;;;;23.52;13.02;;;;;;;-5.97;82.83;95633.19;5050185;28;20207;-72
2024/01/23 02:24:13;;;;;;;19.30;8.93;;;;;;;-6.17;84.28;95638.44;5047588;28;20513;-74
2024/01/23 02:26:40;;;;;;;16.10;9.13;;;;;;;-6.23;85.38;95647.13;5051680;28;20280;-73
2024/01/23 02:29:07;;;;;;;19.48;6.80;;;;;;;-6.28;85.21;95644.25;5048943;28;20208;-73
2024/01/23 02:31:34;;;;;;;10.95;6.40;;;;;;;-6.30;85.60;95631.31;5050010;28;20723;-74
2024/01/23 02:34:01;;;;;;;21.73;9.02;;;;;;;-6.22;85.25;95631.13;5052479;28;20227;-74
2024/01/23 02:36:27;;;;;;;23.90;8.77;;;;;;;-6.10;84.06;95633.97;5049762;28;20207;-74
2024/01/23 02:38:54;;;;;;;13.15;6.63;;;;;;;-6.20;85.08;95625.66;5047000;28;20610;-73
2024/01/23 02:41:22;;;;;;;18.60;6.63;;;;;;;-6.07;83.36;95617.78;5045910;28;20210;-74
2024/01/23 02:43:49;;;;;;;15.15;9.18;;;;;;;-6.53;84.88;95618.44;5049202;28;20212;-74
2024/01/23 02:46:16;;;;;;;28.15;8.57;;;;;;;-6.61;85.46;95610.72;5048975;28;20517;-73
2024/01/23 02:48:43;;;;;;;13.50;7.40;;;;;;;-6.75;85.66;95606.41;5045648;28;20200;-74
2024/01/23 02:51:10;;;;;;;24.90;10.27;;;;;;;-6.69;86.61;95605.59;5048664;28;20687;-73
2024/01/23 02:53:37;;;;;;;18.27;7.85;;;;;;;-6.65;87.82;95601.56;5050905;28;20207;-73
2024/01/23 02:56:04;;;;;;;11.77;6.13;;;;;;;-6.31;87.33;95591.97;5048297;28;20207;-74
2024/01/23 02:58:32;;;;;;;22.70;7.75;;;;;;;-6.49;87.45;95598.59;5048085;28;20200;-73
2024/01/23 03:00:59;;;;;;;12.48;5.93;;;;;;;-6.16;87.71;95584.72;5058143;28;20204;-75
2024/01/23 03:03:25;;;;;;;14.05;7.68;;;;;;;-6.15;84.96;95586.34;5058094;28;20203;-73
2024/01/23 03:05:52;;;;;;;22.58;8.57;;;;;;;-5.87;85.59;95586.09;5052624;28;20618;-74
2024/01/23 03:08:22;;;;;;;17.52;9.52;;;;;;;-6.02;84.54;95585.53;5046978;28;20212;-75
2024/01/23 03:10:49;;;;;;;13.10;7.47;;;;;;;-6.48;85.12;95587.06;5053666;28;20281;-72
2024/01/23 03:13:16;;;;;;;15.50;8.60;;;;;;;-6.27;85.59;95578.16;5051858;28;20210;-74
2024/01/23 03:15:45;;;;;;;12.65;6.63;;;;;;;-6.20;86.10;95568.47;5059499;28;20198;-71
2024/01/23 03:18:11;;;;;;;20.02;8.50;;;;;;;-6.35;86.81;95564.38;5057819;28;20568;-72
2024/01/23 03:20:38;;;;;;;20.50;8.30;;;;;;;-6.59;86.42;95574.47;5050101;28;20312;-72
2024/01/23 03:23:05;;;;;;;9.32;6.82;;;;;;;-6.94;86.38;95570.25;5056680;28;20600;-72
2024/01/23 03:25:32;;;;;;;22.42;10.15;;;;;;;-7.39;87.12;95572.47;5060339;28;20204;-71
2024/01/23 03:27:58;;;;;;;19.10;7.85;;;;;;;-7.38;88.25;95563.53;5049504;28;20524;-72
2024/01/23 03:30:29;;;;;;;19.52;8.82;;;;;;;-7.32;88.08;95556.72;5048412;28;20223;-75
2024/01/23 03:32:57;;;;;;;25.45;10.73;;;;;;;-7.15;88.06;95546.69;5050143;28;20231;-72
2024/01/23 03:35:24;;;;;;;20.73;6.28;;;;;;;-6.98;88.03;95538.25;5056679;28;20252;-72
2024/01/23 03:37:51;;;;;;;14.63;7.60;;;;;;;-6.93;87.43;95535.03;5048820;28;20303;-72
2024/01/23 03:40:18;;;;;;;23.25;9.73;;;;;;;-6.96;86.81;95538.84;5048367;28;20203;-72
2024/01/23 03:42:45;;;;;;;20.98;8.23;;;;;;;-7.12;86.77;95530.50;5049841;28;20230;-73
2024/01/23 03:45:11;;;;;;;15.07;8.02;;;;;;;-7.05;86.88;95539.22;5048125;28;20261;-75
2024/01/23 03:47:38;;;;;;;19.10;9.77;;;;;;;-7.05;87.45;95537.41;5050619;28;20548;-74
2024/01/23 03:50:07;;;;;;;18.17;8.82;;;;;;;-6.82;85.85;95532.63;5045681;28;20212;-76
2024/01/23 03:52:36;;;;;;;25.50;7.88;;;;;;;-6.63;86.15;95536.34;5046794;28;20650;-74
2024/01/23 03:55:03;;;;;;;9.95;7.50;;;;;;;-6.63;85.99;95530.25;5047300;28;20295;-75
2024/01/23 03:57:30;;;;;;;12.18;7.13;;;;;;;-6.38;84.88;95527.88;5046050;28;20208;-71
2024/01/23 03:59:57;;;;;;;24.83;8.63;;;;;;;-6.48;84.67;95531.72;5046624;28;20200;-72
2024/01/23 04:02:25;;;;;;;15.25;7.57;;;;;;;-6.56;85.97;95526.63;5047701;28;20200;-74
2024/01/23 04:04:52;;;;;;;17.75;6.43;;;;;;;-6.42;84.76;95516.13;5047650;28;20207;-74
2024/01/23 04:07:20;;;;;;;8.35;5.63;;;;;;;-6.43;85.05;95522.41;5050430;28;20215;-73
2024/01/23 04:09:47;;;;;;;16.02;7.35;;;;;;;-6.40;84.47;95514.06;5042428;28;20265;-72
2024/01/23 04:12:13;;;;;;;28.02;8.38;;;;;;;-6.61;85.23;95518.53;5047634;28;20227;-75
2024/01/23 04:14:41;;;;;;;18.42;8.65;;;;;;;-7.08;86.13;95521.19;5043923;28;20208;-72
2024/01/23 04:17:08;;;;;;;17.52;7.32;;;;;;;-7.72;88.39;95529.34;5048637;28;20607;-73
2024/01/23 04:19:34;;;;;;;21.55;6.40;;;;;;;-8.13;86.33;95532.69;5048266;28;20207;-74
2024/01/23 04:22:01;;;;;;;23.83;8.65;;;;;;;-8.24;88.29;95533.22;5051160;28;20199;-74
2024/01/23 04:24:30;;;;;;;24.90;11.77;;;;;;;-8.36;89.37;95532.13;5046380;28;20216;-74
2024/01/23 04:26:56;;;;;;;21.83;9.32;;;;;;;-8.23;90.13;95532.22;5051547;28;20202;-75
2024/01/23 04:29:23;;;;;;;38.58;11.75;;;;;;;-8.28;90.99;95524.06;5051130;28;20234;-72
2024/01/23 04:31:50;;;;;;;30.05;11.70;;;;;;;-8.35;90.24;95518.81;5052005;28;20227;-75
2024/01/23 04:34:17;;;;;;;26.33;11.65;;;;;;;-8.31;90.48;95519.19;5053509;28;20605;-75
2024/01/23 04:36:44;;;;;;;24.63;10.30;;;;;;;-8.26;91.54;95516.81;5055108;28;20196;-73
2024/01/23 04:39:10;;;;;;;35.38;10.45;;;;;;;-8.23;90.96;95521.69;5049030;28;20311;-74
2024/01/23 04:41:39;;;;;;;30.70;9.90;;;;;;;-8.27;90.57;95512.56;5050711;28;20196;-74
2024/01/23 04:44:05;;;;;;;31.90;12.93;;;;;;;-8.31;91.37;95513.94;5054989;28;20196;-73
2024/01/23 04:46:32;;;;;;;40.35;13.07;;;;;;;-8.30;91.71;95520.81;5051399;28;20208;-73
2024/01/23 04:48:59;;;;;;;13.82;8.57;;;;;;;-8.28;91.53;95513.56;5052177;28;20215;-73
2024/01/23 04:51:26;;;;;;;21.23;10.30;;;;;;;-8.38;92.47;95518.34;5051430;28;20235;-73
2024/01/23 04:53:53;;;;;;;17.08;7.75;;;;;;;-8.51;92.35;95519.06;5054219;28;20207;-73
2024/01/23 04:56:20;;;;;;;28.80;11.23;;;;;;;-8.48;92.03;95517.88;5048449;28;20222;-73
2024/01/23 04:58:50;;;;;;;32.70;10.48;;;;;;;-8.18;92.49;95519.28;5049335;28;20206;-72
2024/01/23 05:01:19;;;;;;;25.08;10.02;;;;;;;-8.14;91.39;95525.00;5050517;28;20253;-73
2024/01/23 05:03:46;;;;;;;36.08;13.32;;;;;;;-8.02;90.91;95521.66;5050509;28;20200;-73
2024/01/23 05:06:15;;;;;;;26.33;9.38;;;;;;;-7.59;90.03;95517.09;5051276;28;20207;-72
2024/01/23 05:08:41;;;;;;;33.85;11.73;;;;;;;-7.45;88.92;95510.09;5051510;28;20217;-72
2024/01/23 05:11:08;;;;;;;25.17;10.80;;;;;;;-7.11;88.06;95511.06;5052559;28;20227;-73
2024/01/23 05:13:35;;;;;;;26.33;9.48;;;;;;;-7.23;86.72;95519.50;5052700;28;20636;-72
2024/01/23 05:16:06;;;;;;;20.02;7.60;;;;;;;-6.95;86.02;95516.78;5051508;28;20349;-74
2024/01/23 05:18:34;;;;;;;18.92;9.23;;;;;;;-7.01;85.36;95517.59;5053496;28;20211;-74
2024/01/23 05:21:04;;;;;;;14.90;6.82;;;;;;;-6.70;86.31;95509.19;5052899;28;20599;-74
2024/01/23 05:23:30;;;;;;;21.77;7.93;;;;;;;-6.60;85.95;95514.88;5053568;28;20207;-73
2024/01/23 05:25:59;;;;;;;11.50;7.53;;;;;;;-6.56;84.04;95510.81;5053575;28;20207;-75
2024/01/23 05:28:28;;;;;;;31.15;10.20;;;;;;;-6.51;82.82;95500.50;5053792;28;20573;-74
2024/01/23 05:30:54;;;;;;;12.75;7.47;;;;;;;-6.39;81.81;95499.91;5053512;28;20211;-74
2024/01/23 05:33:22;;;;;;;15.70;7.88;;;;;;;-6.33;82.04;95499.09;5053248;28;20731;-74
2024/01/23 05:35:49;;;;;;;14.20;6.18;;;;;;;-6.37;82.17;95497.88;5054712;28;20200;-73
2024/01/23 05:38:20;;;;;;;19.73;9.02;;;;;;;-6.42;82.06;95497.69;5052998;28;20227;-74
2024/01/23 05:40:47;;;;;;;17.05;7.25;;;;;;;-6.65;83.47;95496.22;5052198;28;20266;-73
2024/01/23 05:43:14;;;;;;;20.25;7.68;;;;;;;-6.73;83.91;95493.78;5052645;28;20210;-73
2024/01/23 05:45:43;;;;;;;20.85;8.73;;;;;;;-6.77;85.18;95484.63;5053815;28;20196;-73
2024/01/23 05:48:10;;;;;;;18.77;5.95;;;;;;;-6.93;86.15;95479.72;5053196;28;20294;-73
2024/01/23 05:50:40;;;;;;;14.23;6.30;;;;;;;-6.63;86.83;95478.38;5053528;28;20207;-72
2024/01/23 05:53:07;;;;;;;11.07;5.85;;;;;;;-6.49;85.94;95485.28;5052132;28;20214;-73
2024/01/23 05:55:37;;;;;;;12.73;7.85;;;;;;;-6.87;85.57;95471.03;5052859;28;20211;-73
2024/01/23 05:58:07;;;;;;;19.13;8.15;;;;;;;-6.64;85.67;95475.94;5052742;28;20215;-73
2024/01/23 06:00:34;;;;;;;13.77;5.97;;;;;;;-6.51;85.16;95468.88;5052638;28;20207;-73
2024/01/23 06:03:01;;;;;;;11.30;7.13;;;;;;;-6.67;83.88;95471.88;5052891;28;20200;-71
2024/01/23 06:05:27;;;;;;;13.55;6.72;;;;;;;-6.93;83.71;95474.47;5050491;28;20655;-75
2024/01/23 06:07:56;;;;;;;16.02;7.13;;;;;;;-7.14;84.56;95466.72;5052738;28;20206;-75
2024/01/23 06:10:23;;;;;;;16.48;7.97;;;;;;;-6.95;86.35;95464.13;5052552;28;20208;-74
2024/01/23 06:12:50;;;;;;;21.55;5.82;;;;;;;-6.88;86.45;95470.22;5056905;28;20222;-75
2024/01/23 06:15:17;;;;;;;13.70;8.27;;;;;;;-6.43;85.02;95464.44;5054871;28;20211;-75
2024/01/23 06:17:44;;;;;;;24.20;7.95;;;;;;;-6.57;84.67;95474.16;5053518;28;20235;-76
2024/01/23 06:20:12;;;;;;;12.68;6.35;;;;;;;-7.03;85.41;95481.94;5052750;28;20302;-73
2024/01/23 06:22:39;;;;;;;14.70;9.00;;;;;;;-6.90;86.55;95482.78;5060372;28;20232;-77
2024/01/23 06:25:10;;;;;;;26.02;8.05;;;;;;;-6.46;86.43;95487.53;5050835;28;20599;-74
2024/01/23 06:27:37;;;;;;;15.60;7.53;;;;;;;-6.11;85.39;95490.78;5052369;28;20207;-75
2024/01/23 06:30:04;;;;;;;15.75;7.65;;;;;;;-5.26;83.56;95491.66;5054013;28;20212;-74
2024/01/23 06:32:32;;;;;;;21.88;9.57;;;;;;;-4.27;80.97;95496.44;5051784;28;20266;-74
2024/01/23 06:34:59;;;;;;;23.73;11.60;;;;;;;-4.52;76.87;95488.47;5052172;28;20223;-74
2024/01/23 06:37:26;;;;;;;16.75;7.70;;;;;;;-3.64;77.36;95494.50;5052747;28;20219;-74
2024/01/23 06:39:53;;;;;;;13.38;6.68;;;;;;;-3.29;74.56;95493.97;5051942;28;20211;-75
2024/01/23 06:42:21;;;;;;;12.38;8.27;;;;;;;-2.55;72.86;95498.97;5053124;28;20721;-74
2024/01/23 06:44:48;;;;;;;15.10;7.22;;;;;;;-2.41;70.89;95502.28;5043656;28;20239;-75
2024/01/23 06:47:16;;;;;;;18.17;6.30;;;;;;;-2.22;70.82;95506.50;5050132;28;20219;-77
2024/01/23 06:49:44;;;;;;;15.30;7.50;;;;;;;-2.99;72.32;95505.44;5051805;28;20238;-74
2024/01/23 06:52:11;;;;;;;16.17;10.07;;;;;;;-3.35;75.23;95510.72;5051469;28;20592;-75
2024/01/23 06:54:38;;;;;;;16.85;7.82;;;;;;;-3.60;74.43;95508.94;5043498;28;20212;-74
2024/01/23 06:57:06;;;;;;;16.38;6.07;;;;;;;-2.91;75.82;95513.09;5052464;28;20261;-74
2024/01/23 06:59:34;;;;;;;24.05;7.32;;;;;;;-2.53;74.62;95509.38;5051711;28;20258;-76
2024/01/23 07:02:01;;;;;;;19.45;8.10;;;;;;;-2.64;73.27;95516.25;5051523;28;20648;-74
2024/01/23 07:04:27;;;;;;;12.68;6.25;;;;;;;-2.65;73.06;95516.47;5051755;28;20617;-74
2024/01/23 07:06:54;;;;;;;14.27;7.07;;;;;;;-3.00;73.56;95506.47;5051900;28;20208;-75
2024/01/23 07:09:21;;;;;;;16.83;7.35;;;;;;;-3.18;74.17;95505.66;5051742;28;20579;-75
2024/01/23 07:11:56;;;;;;;14.45;6.40;;;;;;;-3.35;74.75;95494.84;5072164;27;20545;-76
2024/01/23 07:14:22;;;;;;;10.32;4.95;;;;;;;-3.22;75.54;95500.00;5056538;28;20210;-75
2024/01/23 07:16:49;;;;;;;19.42;6.18;;;;;;;-3.74;75.53;95486.25;5064093;28;20229;-76
2024/01/23 07:19:16;;;;;;;21.42;8.80;;;;;;;-4.52;79.26;95488.47;5068645;28;20206;-73
2024/01/23 07:21:43;;;;;;;15.75;6.20;;;;;;;-4.69;80.52;95472.31;5065897;28;20203;-74
2024/01/23 07:24:11;;;;;;;22.75;9.23;;;;;;;-4.46;81.41;95468.28;5068368;28;20203;-75
2024/01/23 07:26:38;;;;;;;13.30;7.65;;;;;;;-3.91;81.58;95469.31;5066507;28;20211;-73
2024/01/23 07:29:07;;;;;;;14.98;7.10;;;;;;;-3.83;80.60;95471.69;5068752;28;20581;-76
2024/01/23 07:31:34;;;;;;;21.27;8.25;;;;;;;-4.42;80.23;95480.88;5055289;28;20227;-77
2024/01/23 07:34:01;;;;;;;20.13;7.93;;;;;;;-4.49;81.42;95490.66;5067746;28;20653;-76
2024/01/23 07:36:28;;;;;;;12.20;6.85;;;;;;;-4.79;80.87;95500.22;5053243;28;20211;-74
2024/01/23 07:38:55;;;;;;;14.32;8.48;;;;;;;-4.14;81.49;95506.13;5048048;28;20208;-73
2024/01/23 07:41:25;;;;;;;24.85;7.93;;;;;;;-3.94;80.11;95496.19;5050614;28;20211;-76
2024/01/23 07:43:52;;;;;;;11.77;7.45;;;;;;;-3.88;79.50;95489.22;5059540;28;20237;-76
2024/01/23 07:46:22;;;;;;;19.73;8.18;;;;;;;-3.96;80.24;95490.28;5054419;28;20200;-78
2024/01/23 07:48:49;;;;;;;14.38;7.88;;;;;;;-4.38;81.02;95495.31;5068108;28;20203;-78
2024/01/23 07:51:16;;;;;;;15.85;6.20;;;;;;;-5.03;82.63;95507.00;5041275;28;20231;-78
2024/01/23 07:53:44;;;;;;;20.90;9.88;;;;;;;-5.08;84.49;95512.94;5062213;28;20583;-80
2024/01/23 07:56:13;;;;;;;21.13;8.65;;;;;;;-4.77;85.18;95512.16;5054908;28;20207;-80
2024/01/23 07:58:40;;;;;;;17.98;8.80;;;;;;;-4.14;84.80;95503.47;5049063;28;20634;-78
2024/01/23 08:01:17;;;;;;;16.02;7.80;;;;;;;-3.20;83.67;95507.72;5053881;28;20560;-76
2024/01/23 08:03:52;;;;;;;17.15;7.25;;;;;;;-2.65;81.84;95505.88;5051447;28;20214;-77
2024/01/23 08:06:20;;;;;;;30.42;8.68;;;;;;;-2.11;79.56;95502.25;5059546;28;20686;-75
2024/01/23 08:08:51;;;;;;;13.00;5.57;;;;;;;-1.73;77.09;95488.59;5050443;28;20559;-76
2024/01/23 08:11:18;;;;;;;14.43;6.72;;;;;;;-1.82;76.41;95500.59;5053876;28;20239;-76
2024/01/23 08:16:32;;;;;;;12.55;7.80;;;;;;;-2.28;76.70;95493.31;5041937;28;20755;-76
2024/01/23 08:19:03;;;;;;;28.75;9.55;;;;;;;-2.35;76.83;95482.81;5047342;28;20212;-76
2024/01/23 08:21:32;;;;;;;10.40;6.10;;;;;;;-3.20;78.77;95489.19;5044414;28;20213;-75
2024/01/23 08:23:59;;;;;;;17.80;7.10;;;;;;;-3.26;80.63;95477.63;5054097;28;20246;-76
2024/01/23 08:26:29;;;;;;;15.63;7.13;;;;;;;-3.29;80.67;95492.13;5040287;28;20208;-77
2024/01/23 08:28:56;;;;;;;8.13;4.97;;;;;;;-3.11;82.06;95496.59;5034296;28;20204;-76
2024/01/23 08:31:23;;;;;;;2.45;2.25;;;;;;;-3.16;80.69;95493.03;5035638;28;20643;-77
2024/01/23 08:33:53;;;;;;;6.10;4.22;;;;;;;-2.91;80.60;95491.91;5032681;28;20235;-77
2024/01/23 08:36:21;;;;;;;9.93;5.05;;;;;;;-2.76;80.78;95493.38;5041135;28;20607;-76
2024/01/23 08:38:49;;;;;;;10.25;5.80;;;;;;;-2.88;79.95;95496.78;5037372;28;20728;-77
2024/01/23 08:41:19;;;;;;;27.95;10.88;;;;;;;-2.88;80.50;95488.00;5037094;28;20208;-76
2024/01/23 08:43:49;;;;;;;21.00;8.52;;;;;;;-2.98;80.21;95485.03;5034171;28;20614;-77
2024/01/23 08:46:16;;;;;;;22.85;8.02;;;;;;;-2.54;80.62;95489.19;5044692;28;20257;-75
2024/01/23 08:48:43;;;;;;;13.45;7.63;;;;;;;-2.15;79.07;95491.28;5053055;28;20208;-76
2024/01/23 08:51:10;;;;;;;18.95;10.05;;;;;;;-2.42;77.31;95492.69;5034696;28;20228;-78
2024/01/23 08:53:44;;;;;;;17.58;6.60;;;;;;;-2.46;77.12;95488.88;5033574;28;20211;-77
2024/01/23 08:56:17;;;;;;;19.38;9.55;;;;;;;-2.59;76.37;95495.16;5028459;28;20200;-76
2024/01/23 08:58:44;;;;;;;18.55;7.68;;;;;;;-2.64;76.42;95488.91;5026742;28;20204;-76
2024/01/23 09:01:14;;;;;;;22.05;9.73;;;;;;;-2.94;78.10;95495.00;5005956;28;20562;-76
2024/01/23 09:03:41;;;;;;;7.93;4.38;;;;;;;-2.84;77.76;95480.41;5029762;28;20652;-76
2024/01/23 09:08:50;;;;;;;23.15;9.60;;;;;;;-2.39;77.30;95472.88;5039448;28;20691;-76
2024/01/23 09:11:18;;;;;;;10.13;7.13;;;;;;;-2.12;78.13;95473.28;5019162;28;20248;-77
2024/01/23 09:13:53;;;;;;;18.67;9.82;;;;;;;-1.82;78.29;95466.88;5043557;28;20211;-77
2024/01/23 09:16:21;;;;;;;16.90;8.13;;;;;;;-1.66;76.49;95456.63;5050650;28;20594;-77
2024/01/23 09:18:51;;;;;;;21.75;9.95;;;;;;;-1.55;75.89;95453.97;5039126;28;20215;-77
2024/01/23 09:21:28;;;;;;;1.63;1.45;;;;;;;-1.72;78.07;95457.53;5051671;28;20249;-77
2024/01/23 09:23:58;;;;;;;20.15;3.22;;;;;;;-1.50;75.18;95456.72;5049245;28;20203;-77
2024/01/23 09:26:29;;;;;;;0.68;0.68;;;;;;;-1.01;76.26;95443.94;5037780;28;20208;-78
2024/01/23 09:29:12;;;;;;;6.53;4.10;;;;;;;-1.16;75.21;95444.44;5040595;28;20906;-77
2024/01/23 09:31:50;;;;;;;10.48;9.52;;;;;;;-1.34;75.28;95449.06;5039490;28;20219;-77
2024/01/23 09:34:28;;;;;;;3.20;2.40;;;;;;;-1.33;76.72;95440.88;5037819;28;20918;-77
2024/01/23 09:37:05;;;;;;;0.43;0.43;;;;;;;-1.62;76.57;95441.81;5040736;28;20203;-74
2024/01/23 09:39:43;;;;;;;4.65;2.88;;;;;;;-1.49;75.30;95437.06;5041460;28;20291;-76
2024/01/23 09:42:16;;;;;;;31.13;7.43;;;;;;;-1.59;74.89;95442.16;5036106;28;20199;-75
2024/01/23 09:44:43;;;;;;;7.57;4.18;;;;;;;-1.51;74.51;95439.19;5040569;28;20207;-77
2024/01/23 09:47:12;;;;;;;5.22;4.88;;;;;;;-1.51;74.78;95428.56;5045592;28;20679;-77
2024/01/23 09:49:39;;;;;;;4.68;4.38;;;;;;;-1.68;74.81;95434.78;5050927;28;20212;-76
2024/01/23 09:52:07;;;;;;;1.55;1.40;;;;;;;-1.68;74.70;95432.94;5045490;28;20224;-77
2024/01/23 09:54:44;;;;;;;2.63;2.42;;;;;;;-1.21;75.19;95427.56;5037996;28;20205;-82
2024/01/23 09:57:11;;;;;;;2.92;2.28;;;;;;;-0.88;74.67;95411.75;5047520;28;20219;-79
2024/01/23 09:59:51;;;;;;;4.85;4.45;;;;;;;-1.08;72.55;95419.31;5038571;28;20212;-78
2024/01/23 10:02:24;;;;;;;6.88;6.53;;;;;;;-1.28;72.42;95410.94;5051947;28;20203;-77
2024/01/23 10:04:53;;;;;;;7.28;3.90;;;;;;;-1.04;72.69;95407.19;5045651;28;20204;-77
2024/01/23 10:07:20;;;;;;;3.63;3.35;;;;;;;-0.92;72.91;95399.16;5045221;28;20298;-76
2024/01/23 10:09:50;;;;;;;0.30;0.30;;;;;;;-0.62;71.65;95405.06;5029966;28;20212;-78
2024/01/23 10:12:18;;;;;;;1.75;1.65;;;;;;;-0.31;73.62;95394.97;5051615;28;20239;-77
2024/01/23 10:14:45;;;;;;;1.08;1.05;;;;;;;-1.08;72.03;95411.34;5038084;28;20637;-78
2024/01/23 10:17:12;;;;;;;1.38;1.25;;;;;;;-0.76;73.02;95399.22;5051764;28;20646;-78
2024/01/23 10:19:39;;;;;;;2.42;2.05;;;;;;;-0.93;72.32;95395.69;5042525;28;20564;-78
2024/01/23 10:22:06;;;;;;;1.88;1.77;;;;;;;-0.75;72.45;95384.88;5051690;28;20203;-79
2024/01/23 10:24:33;;;;;;;2.38;2.22;;;;;;;-0.78;72.99;95382.69;5045265;28;20254;-77
2024/01/23 10:27:03;;;;;;;1.77;1.50;;;;;;;-0.16;72.32;95366.75;5051547;28;20238;-80
2024/01/23 10:29:33;;;;;;;5.45;1.10;;;;;;;-0.10;70.09;95359.63;5045920;28;20553;-80
2024/01/23 10:32:00;;;;;;;1.10;1.10;;;;;;;-0.42;70.86;95362.06;5028622;28;20231;-82
2024/01/23 10:34:27;;;;;;;1.20;1.10;;;;;;;-0.24;73.00;95361.00;5049194;28;20638;-80
2024/01/23 10:36:55;;;;;;;0.75;0.75;;;;;;;-0.22;72.53;95362.38;5040639;28;20208;-82
2024/01/23 10:39:23;;;;;;;2.75;2.53;;;;;;;-0.40;70.58;95352.75;5033813;28;20318;-80
2024/01/23 10:41:52;;;;;;;2.40;2.20;;;;;;;-0.13;70.04;95360.91;5049881;28;20640;-80
2024/01/23 10:44:23;;;;;;;2.85;2.58;;;;;;;-0.08;71.86;95353.00;5040417;28;20196;-80
2024/01/23 10:46:54;;;;;;;6.97;2.78;;;;;;;0.06;69.87;95342.03;5041980;28;20565;-80
2024/01/23 10:49:21;;;;;;;2.58;2.42;;;;;;;0.37;70.55;95349.41;5051758;28;20211;-80
2024/01/23 10:51:51;;;;;;;0.20;0.20;;;;;;;0.57;70.54;95338.19;5032490;28;20228;-81
2024/01/23 10:54:26;;;;;;;2.58;1.40;;;;;;;0.16;69.97;95347.50;5049611;28;20234;-77
2024/01/23 10:56:56;;;;;;;6.70;6.13;;;;;;;-0.19;70.49;95334.47;5033177;28;20215;-79
2024/01/23 10:59:28;;;;;;;2.97;2.20;;;;;;;-0.23;70.09;95328.81;5034458;28;20204;-82
2024/01/23 11:02:02;;;;;;;0.93;0.93;;;;;;;-0.17;70.33;95327.84;5045260;28;20208;-82
2024/01/23 11:04:30;;;;;;;6.10;5.47;;;;;;;-0.26;70.71;95323.97;5037593;28;20281;-80
2024/01/23 11:07:01;;;;;;;2.92;2.70;;;;;;;0.18;71.26;95318.75;5040385;28;20724;-80
2024/01/23 11:09:33;;;;;;;1.17;1.17;;;;;;;0.04;70.86;95307.66;5032060;28;20227;-79
2024/01/23 11:12:07;;;;;;;1.67;1.58;;;;;;;0.29;70.82;95302.66;5038966;28;20243;-80
2024/01/23 11:14:42;;;;;;;15.35;2.88;;;;;;;0.41;70.97;95307.88;5041668;28;20199;-77
2024/01/23 11:17:12;;;;;;;0.70;0.70;;;;;;;0.59;71.33;95304.09;5050292;28;20215;-81
2024/01/23 11:19:41;;;;;;;12.20;8.35;;;;;;;0.58;70.06;95313.97;5050175;28;20298;-80
2024/01/23 11:22:11;;;;;;;0.98;0.73;;;;;;;0.86;70.12;95301.47;5037721;28;20203;-81
2024/01/23 11:24:40;;;;;;;0.68;0.68;;;;;;;1.02;68.35;95301.41;5050245;28;20219;-79
2024/01/23 11:27:08;;;;;;;3.50;2.47;;;;;;;0.65;69.08;95303.13;5037567;28;20295;-79
2024/01/23 11:29:35;;;;;;;6.30;5.93;;;;;;;0.64;70.01;95301.50;5030863;28;20204;-79
2024/01/23 11:32:17;;;;;;;6.60;6.03;;;;;;;0.63;69.37;95306.03;5039171;28;20579;-79
2024/01/23 11:34:44;;;;;;;2.60;2.40;;;;;;;0.57;69.81;95308.88;5049194;28;20722;-79
2024/01/23 11:37:44;;;;;;;2.80;2.58;;;;;;;0.28;69.24;95313.56;5033037;28;20215;-83